sensor_id;sensor_type;location;lat;lon;timestamp;P1;durP1;ratioP1;P2;durP2;ratioP2
13785;SDS011;47474;48.824;9.384;2022-08-19T00:00:02;11.30;;;9.15;;
13785;SDS011;47474;48.824;9.384;2022-08-19T00:02:30;9.63;;;8.50;;
13785;SDS011;47474;48.824;9.384;2022-08-19T00:04:57;11.15;;;8.50;;
13785;SDS011;47474;48.824;9.384;2022-08-19T00:07:25;8.52;;;7.72;;
13785;SDS011;47474;48.824;9.384;2022-08-19T00:09:52;9.73;;;8.73;;
13785;SDS011;47474;48.824;9.384;2022-08-19T00:12:19;12.80;;;8.35;;
13785;SDS011;47474;48.824;9.384;2022-08-19T00:14:49;10.27;;;9.27;;
13785;SDS011;47474;48.824;9.384;2022-08-19T00:17:18;10.30;;;9.23;;
13785;SDS011;47474;48.824;9.384;2022-08-19T00:19:44;9.70;;;8.63;;
13785;SDS011;47474;48.824;9.384;2022-08-19T00:22:11;9.98;;;8.82;;
13785;SDS011;47474;48.824;9.384;2022-08-19T00:24:39;9.57;;;8.68;;
13785;SDS011;47474;48.824;9.384;2022-08-19T00:27:08;8.82;;;7.95;;
13785;SDS011;47474;48.824;9.384;2022-08-19T00:29:38;10.38;;;9.38;;
13785;SDS011;47474;48.824;9.384;2022-08-19T00:32:05;10.23;;;9.23;;
13785;SDS011;47474;48.824;9.384;2022-08-19T00:34:32;10.32;;;9.23;;
13785;SDS011;47474;48.824;9.384;2022-08-19T00:37:01;9.57;;;8.68;;
13785;SDS011;47474;48.824;9.384;2022-08-19T00:39:28;10.32;;;9.32;;
13785;SDS011;47474;48.824;9.384;2022-08-19T00:41:56;9.75;;;8.85;;
13785;SDS011;47474;48.824;9.384;2022-08-19T00:44:24;10.18;;;8.82;;
13785;SDS011;47474;48.824;9.384;2022-08-19T00:46:56;10.57;;;9.45;;
13785;SDS011;47474;48.824;9.384;2022-08-19T00:49:24;11.05;;;9.07;;
13785;SDS011;47474;48.824;9.384;2022-08-19T00:51:59;10.48;;;9.48;;
13785;SDS011;47474;48.824;9.384;2022-08-19T00:54:31;10.30;;;9.27;;
13785;SDS011;47474;48.824;9.384;2022-08-19T00:56:59;10.45;;;9.43;;
13785;SDS011;47474;48.824;9.384;2022-08-19T00:59:28;10.38;;;9.35;;
13785;SDS011;47474;48.824;9.384;2022-08-19T01:01:55;10.82;;;9.73;;
13785;SDS011;47474;48.824;9.384;2022-08-19T01:04:22;10.07;;;9.07;;
13785;SDS011;47474;48.824;9.384;2022-08-19T01:06:49;11.48;;;10.27;;
13785;SDS011;47474;48.824;9.384;2022-08-19T01:09:16;11.52;;;10.30;;
13785;SDS011;47474;48.824;9.384;2022-08-19T01:11:42;10.93;;;9.75;;
13785;SDS011;47474;48.824;9.384;2022-08-19T01:14:12;12.73;;;9.82;;
13785;SDS011;47474;48.824;9.384;2022-08-19T01:16:40;11.52;;;10.43;;
13785;SDS011;47474;48.824;9.384;2022-08-19T01:19:09;11.75;;;10.57;;
13785;SDS011;47474;48.824;9.384;2022-08-19T01:21:43;11.90;;;10.68;;
13785;SDS011;47474;48.824;9.384;2022-08-19T01:24:15;11.75;;;10.55;;
13785;SDS011;47474;48.824;9.384;2022-08-19T01:26:42;11.80;;;10.60;;
13785;SDS011;47474;48.824;9.384;2022-08-19T01:29:10;12.48;;;11.18;;
13785;SDS011;47474;48.824;9.384;2022-08-19T01:31:37;11.52;;;10.07;;
13785;SDS011;47474;48.824;9.384;2022-08-19T01:34:04;12.57;;;11.27;;
13785;SDS011;47474;48.824;9.384;2022-08-19T01:36:32;11.77;;;10.57;;
13785;SDS011;47474;48.824;9.384;2022-08-19T01:39:05;12.48;;;10.80;;
13785;SDS011;47474;48.824;9.384;2022-08-19T01:41:35;12.57;;;11.27;;
13785;SDS011;47474;48.824;9.384;2022-08-19T01:44:03;13.63;;;10.88;;
13785;SDS011;47474;48.824;9.384;2022-08-19T01:46:30;11.98;;;10.80;;
13785;SDS011;47474;48.824;9.384;2022-08-19T01:48:57;11.63;;;10.38;;
13785;SDS011;47474;48.824;9.384;2022-08-19T01:51:25;14.60;;;11.25;;
13785;SDS011;47474;48.824;9.384;2022-08-19T01:53:55;12.77;;;11.15;;
13785;SDS011;47474;48.824;9.384;2022-08-19T01:56:23;12.43;;;11.10;;
13785;SDS011;47474;48.824;9.384;2022-08-19T01:58:52;12.60;;;11.30;;
13785;SDS011;47474;48.824;9.384;2022-08-19T02:01:21;12.07;;;10.55;;
13785;SDS011;47474;48.824;9.384;2022-08-19T02:03:48;12.30;;;11.10;;
13785;SDS011;47474;48.824;9.384;2022-08-19T02:06:16;11.32;;;10.25;;
13785;SDS011;47474;48.824;9.384;2022-08-19T02:08:43;12.25;;;10.85;;
13785;SDS011;47474;48.824;9.384;2022-08-19T02:11:17;12.13;;;10.82;;
13785;SDS011;47474;48.824;9.384;2022-08-19T02:13:45;13.00;;;11.43;;
13785;SDS011;47474;48.824;9.384;2022-08-19T02:16:18;13.55;;;10.43;;
13785;SDS011;47474;48.824;9.384;2022-08-19T02:18:45;12.90;;;11.30;;
13785;SDS011;47474;48.824;9.384;2022-08-19T02:21:13;12.77;;;11.48;;
13785;SDS011;47474;48.824;9.384;2022-08-19T02:23:42;11.63;;;10.35;;
13785;SDS011;47474;48.824;9.384;2022-08-19T02:26:09;13.80;;;11.45;;
13785;SDS011;47474;48.824;9.384;2022-08-19T02:28:38;12.55;;;10.50;;
13785;SDS011;47474;48.824;9.384;2022-08-19T02:31:08;11.40;;;10.25;;
13785;SDS011;47474;48.824;9.384;2022-08-19T02:33:37;14.57;;;10.95;;
13785;SDS011;47474;48.824;9.384;2022-08-19T02:36:07;12.52;;;11.23;;
13785;SDS011;47474;48.824;9.384;2022-08-19T02:38:34;15.52;;;11.45;;
13785;SDS011;47474;48.824;9.384;2022-08-19T02:41:02;12.57;;;10.98;;
13785;SDS011;47474;48.824;9.384;2022-08-19T02:43:34;11.90;;;10.73;;
13785;SDS011;47474;48.824;9.384;2022-08-19T02:46:01;12.13;;;10.82;;
13785;SDS011;47474;48.824;9.384;2022-08-19T02:48:31;13.93;;;11.10;;
13785;SDS011;47474;48.824;9.384;2022-08-19T02:51:00;11.27;;;10.07;;
13785;SDS011;47474;48.824;9.384;2022-08-19T02:53:27;13.23;;;11.82;;
13785;SDS011;47474;48.824;9.384;2022-08-19T02:55:57;12.13;;;10.82;;
13785;SDS011;47474;48.824;9.384;2022-08-19T02:58:24;11.75;;;10.55;;
13785;SDS011;47474;48.824;9.384;2022-08-19T03:00:55;14.02;;;11.85;;
13785;SDS011;47474;48.824;9.384;2022-08-19T03:03:23;14.32;;;11.50;;
13785;SDS011;47474;48.824;9.384;2022-08-19T03:05:50;15.90;;;11.32;;
13785;SDS011;47474;48.824;9.384;2022-08-19T03:08:21;13.32;;;11.95;;
13785;SDS011;47474;48.824;9.384;2022-08-19T03:10:47;13.20;;;11.80;;
13785;SDS011;47474;48.824;9.384;2022-08-19T03:13:15;14.13;;;12.15;;
13785;SDS011;47474;48.824;9.384;2022-08-19T03:15:46;12.57;;;10.88;;
13785;SDS011;47474;48.824;9.384;2022-08-19T03:18:14;14.38;;;12.63;;
13785;SDS011;47474;48.824;9.384;2022-08-19T03:20:42;14.05;;;11.98;;
13785;SDS011;47474;48.824;9.384;2022-08-19T03:23:10;16.38;;;13.15;;
13785;SDS011;47474;48.824;9.384;2022-08-19T03:25:39;16.02;;;13.35;;
13785;SDS011;47474;48.824;9.384;2022-08-19T03:28:08;14.70;;;12.82;;
13785;SDS011;47474;48.824;9.384;2022-08-19T03:30:35;15.88;;;13.10;;
13785;SDS011;47474;48.824;9.384;2022-08-19T03:33:02;15.45;;;13.45;;
13785;SDS011;47474;48.824;9.384;2022-08-19T03:35:28;14.48;;;12.98;;
13785;SDS011;47474;48.824;9.384;2022-08-19T03:37:55;16.00;;;13.32;;
13785;SDS011;47474;48.824;9.384;2022-08-19T03:40:22;16.40;;;13.10;;
13785;SDS011;47474;48.824;9.384;2022-08-19T03:42:51;17.45;;;14.10;;
13785;SDS011;47474;48.824;9.384;2022-08-19T03:45:18;17.48;;;13.20;;
13785;SDS011;47474;48.824;9.384;2022-08-19T03:47:45;14.88;;;13.02;;
13785;SDS011;47474;48.824;9.384;2022-08-19T03:50:12;16.52;;;13.93;;
13785;SDS011;47474;48.824;9.384;2022-08-19T03:52:39;15.85;;;13.68;;
13785;SDS011;47474;48.824;9.384;2022-08-19T03:55:06;17.30;;;13.63;;
13785;SDS011;47474;48.824;9.384;2022-08-19T03:57:33;17.58;;;14.38;;
13785;SDS011;47474;48.824;9.384;2022-08-19T04:00:05;16.65;;;13.85;;
13785;SDS011;47474;48.824;9.384;2022-08-19T04:02:32;18.02;;;14.25;;
13785;SDS011;47474;48.824;9.384;2022-08-19T04:04:59;18.50;;;14.82;;
13785;SDS011;47474;48.824;9.384;2022-08-19T04:07:26;16.65;;;13.75;;
13785;SDS011;47474;48.824;9.384;2022-08-19T04:09:53;16.50;;;13.45;;
13785;SDS011;47474;48.824;9.384;2022-08-19T04:12:19;16.70;;;14.70;;
13785;SDS011;47474;48.824;9.384;2022-08-19T04:14:46;16.70;;;13.40;;
13785;SDS011;47474;48.824;9.384;2022-08-19T04:17:18;16.63;;;14.13;;
13785;SDS011;47474;48.824;9.384;2022-08-19T04:19:44;16.02;;;14.00;;
13785;SDS011;47474;48.824;9.384;2022-08-19T04:22:11;15.50;;;13.25;;
13785;SDS011;47474;48.824;9.384;2022-08-19T04:24:38;18.05;;;14.45;;
13785;SDS011;47474;48.824;9.384;2022-08-19T04:27:04;21.20;;;15.10;;
13785;SDS011;47474;48.824;9.384;2022-08-19T04:29:32;18.42;;;14.45;;
13785;SDS011;47474;48.824;9.384;2022-08-19T04:34:33;16.52;;;14.68;;
13785;SDS011;47474;48.824;9.384;2022-08-19T04:37:00;19.33;;;15.07;;
13785;SDS011;47474;48.824;9.384;2022-08-19T04:39:28;20.08;;;14.93;;
13785;SDS011;47474;48.824;9.384;2022-08-19T04:42:09;18.15;;;14.45;;
13785;SDS011;47474;48.824;9.384;2022-08-19T04:44:50;16.02;;;13.50;;
13785;SDS011;47474;48.824;9.384;2022-08-19T04:47:17;18.38;;;14.73;;
13785;SDS011;47474;48.824;9.384;2022-08-19T04:49:45;17.63;;;15.48;;
13785;SDS011;47474;48.824;9.384;2022-08-19T04:52:11;19.23;;;15.15;;
13785;SDS011;47474;48.824;9.384;2022-08-19T04:54:38;17.30;;;15.35;;
13785;SDS011;47474;48.824;9.384;2022-08-19T04:57:05;17.92;;;15.15;;
13785;SDS011;47474;48.824;9.384;2022-08-19T04:59:35;17.77;;;14.35;;
13785;SDS011;47474;48.824;9.384;2022-08-19T05:02:02;19.67;;;15.18;;
13785;SDS011;47474;48.824;9.384;2022-08-19T05:04:29;18.65;;;16.00;;
13785;SDS011;47474;48.824;9.384;2022-08-19T05:06:58;20.92;;;15.88;;
13785;SDS011;47474;48.824;9.384;2022-08-19T05:09:25;20.98;;;15.60;;
13785;SDS011;47474;48.824;9.384;2022-08-19T05:11:52;18.17;;;15.50;;
13785;SDS011;47474;48.824;9.384;2022-08-19T05:14:18;22.33;;;16.23;;
13785;SDS011;47474;48.824;9.384;2022-08-19T05:16:46;20.73;;;15.85;;
13785;SDS011;47474;48.824;9.384;2022-08-19T05:19:12;17.98;;;14.48;;
13785;SDS011;47474;48.824;9.384;2022-08-19T05:22:13;15.90;;;14.20;;
13785;SDS011;47474;48.824;9.384;2022-08-19T05:25:01;17.13;;;14.40;;
13785;SDS011;47474;48.824;9.384;2022-08-19T05:27:31;20.17;;;15.10;;
13785;SDS011;47474;48.824;9.384;2022-08-19T05:29:58;23.58;;;17.48;;
13785;SDS011;47474;48.824;9.384;2022-08-19T05:32:24;18.70;;;15.43;;
13785;SDS011;47474;48.824;9.384;2022-08-19T05:34:51;16.67;;;14.68;;
13785;SDS011;47474;48.824;9.384;2022-08-19T05:37:19;17.48;;;15.00;;
13785;SDS011;47474;48.824;9.384;2022-08-19T05:39:46;16.90;;;15.05;;
13785;SDS011;47474;48.824;9.384;2022-08-19T05:42:14;16.83;;;14.73;;
13785;SDS011;47474;48.824;9.384;2022-08-19T05:44:42;19.92;;;16.75;;
13785;SDS011;47474;48.824;9.384;2022-08-19T05:47:10;20.90;;;17.13;;
13785;SDS011;47474;48.824;9.384;2022-08-19T05:49:39;19.10;;;16.65;;
13785;SDS011;47474;48.824;9.384;2022-08-19T05:52:07;19.55;;;16.27;;
13785;SDS011;47474;48.824;9.384;2022-08-19T05:54:37;16.63;;;14.82;;
13785;SDS011;47474;48.824;9.384;2022-08-19T05:57:08;17.67;;;15.70;;
13785;SDS011;47474;48.824;9.384;2022-08-19T05:59:35;18.50;;;16.05;;
13785;SDS011;47474;48.824;9.384;2022-08-19T06:02:02;18.77;;;16.80;;
13785;SDS011;47474;48.824;9.384;2022-08-19T06:04:31;19.30;;;14.90;;
13785;SDS011;47474;48.824;9.384;2022-08-19T06:06:58;17.30;;;15.23;;
13785;SDS011;47474;48.824;9.384;2022-08-19T06:09:26;18.33;;;16.27;;
13785;SDS011;47474;48.824;9.384;2022-08-19T06:11:55;17.88;;;15.38;;
13785;SDS011;47474;48.824;9.384;2022-08-19T06:14:25;18.17;;;16.10;;
13785;SDS011;47474;48.824;9.384;2022-08-19T06:16:55;18.08;;;16.15;;
13785;SDS011;47474;48.824;9.384;2022-08-19T06:19:22;19.88;;;15.52;;
13785;SDS011;47474;48.824;9.384;2022-08-19T06:21:50;19.25;;;15.73;;
13785;SDS011;47474;48.824;9.384;2022-08-19T06:24:19;19.17;;;15.90;;
13785;SDS011;47474;48.824;9.384;2022-08-19T06:26:48;23.42;;;18.63;;
13785;SDS011;47474;48.824;9.384;2022-08-19T06:29:18;20.63;;;16.40;;
13785;SDS011;47474;48.824;9.384;2022-08-19T06:31:49;19.77;;;15.95;;
13785;SDS011;47474;48.824;9.384;2022-08-19T06:34:17;19.27;;;16.38;;
13785;SDS011;47474;48.824;9.384;2022-08-19T06:36:45;21.05;;;17.45;;
13785;SDS011;47474;48.824;9.384;2022-08-19T06:39:14;18.88;;;16.75;;
13785;SDS011;47474;48.824;9.384;2022-08-19T06:41:44;19.50;;;16.63;;
13785;SDS011;47474;48.824;9.384;2022-08-19T06:44:12;21.00;;;16.63;;
13785;SDS011;47474;48.824;9.384;2022-08-19T06:46:41;19.90;;;17.77;;
13785;SDS011;47474;48.824;9.384;2022-08-19T06:49:08;22.25;;;17.95;;
13785;SDS011;47474;48.824;9.384;2022-08-19T06:51:38;21.17;;;18.42;;
13785;SDS011;47474;48.824;9.384;2022-08-19T06:54:05;21.45;;;17.48;;
13785;SDS011;47474;48.824;9.384;2022-08-19T06:56:32;23.23;;;18.73;;
13785;SDS011;47474;48.824;9.384;2022-08-19T06:58:59;20.73;;;17.55;;
13785;SDS011;47474;48.824;9.384;2022-08-19T07:01:27;20.02;;;17.88;;
13785;SDS011;47474;48.824;9.384;2022-08-19T07:03:55;21.33;;;18.38;;
13785;SDS011;47474;48.824;9.384;2022-08-19T07:06:22;20.20;;;17.42;;
13785;SDS011;47474;48.824;9.384;2022-08-19T07:08:48;24.08;;;19.08;;
13785;SDS011;47474;48.824;9.384;2022-08-19T07:11:17;20.60;;;17.60;;
13785;SDS011;47474;48.824;9.384;2022-08-19T07:13:46;22.00;;;18.10;;
13785;SDS011;47474;48.824;9.384;2022-08-19T07:16:14;25.60;;;19.00;;
13785;SDS011;47474;48.824;9.384;2022-08-19T07:18:45;21.05;;;18.65;;
13785;SDS011;47474;48.824;9.384;2022-08-19T07:21:14;23.83;;;19.33;;
13785;SDS011;47474;48.824;9.384;2022-08-19T07:23:42;24.13;;;19.35;;
13785;SDS011;47474;48.824;9.384;2022-08-19T07:26:11;25.77;;;20.98;;
13785;SDS011;47474;48.824;9.384;2022-08-19T07:28:40;24.23;;;20.73;;
13785;SDS011;47474;48.824;9.384;2022-08-19T07:31:24;22.60;;;19.35;;
13785;SDS011;47474;48.824;9.384;2022-08-19T07:33:53;24.25;;;20.10;;
13785;SDS011;47474;48.824;9.384;2022-08-19T07:36:23;23.27;;;20.65;;
13785;SDS011;47474;48.824;9.384;2022-08-19T07:38:53;23.58;;;20.50;;
13785;SDS011;47474;48.824;9.384;2022-08-19T07:41:22;24.45;;;21.33;;
13785;SDS011;47474;48.824;9.384;2022-08-19T07:43:51;25.35;;;20.83;;
13785;SDS011;47474;48.824;9.384;2022-08-19T07:46:18;21.13;;;18.67;;
13785;SDS011;47474;48.824;9.384;2022-08-19T07:48:45;23.80;;;19.80;;
13785;SDS011;47474;48.824;9.384;2022-08-19T07:51:13;25.20;;;22.45;;
13785;SDS011;47474;48.824;9.384;2022-08-19T07:53:43;24.70;;;20.55;;
13785;SDS011;47474;48.824;9.384;2022-08-19T07:56:10;23.65;;;20.80;;
13785;SDS011;47474;48.824;9.384;2022-08-19T07:58:38;24.15;;;20.63;;
13785;SDS011;47474;48.824;9.384;2022-08-19T08:01:09;24.27;;;20.42;;
13785;SDS011;47474;48.824;9.384;2022-08-19T08:03:36;24.73;;;20.58;;
13785;SDS011;47474;48.824;9.384;2022-08-19T08:06:21;21.33;;;18.48;;
13785;SDS011;47474;48.824;9.384;2022-08-19T08:09:07;20.00;;;17.67;;
13785;SDS011;47474;48.824;9.384;2022-08-19T08:11:37;24.20;;;17.98;;
13785;SDS011;47474;48.824;9.384;2022-08-19T08:14:04;19.73;;;16.67;;
13785;SDS011;47474;48.824;9.384;2022-08-19T08:16:32;20.23;;;17.55;;
13785;SDS011;47474;48.824;9.384;2022-08-19T08:19:00;20.48;;;16.80;;
13785;SDS011;47474;48.824;9.384;2022-08-19T08:21:27;20.00;;;17.25;;
13785;SDS011;47474;48.824;9.384;2022-08-19T08:23:53;19.73;;;16.60;;
13785;SDS011;47474;48.824;9.384;2022-08-19T08:26:22;21.35;;;17.60;;
13785;SDS011;47474;48.824;9.384;2022-08-19T08:28:48;18.35;;;16.40;;
13785;SDS011;47474;48.824;9.384;2022-08-19T08:31:15;19.60;;;16.60;;
13785;SDS011;47474;48.824;9.384;2022-08-19T08:33:43;19.67;;;16.85;;
13785;SDS011;47474;48.824;9.384;2022-08-19T08:36:10;19.77;;;15.77;;
13785;SDS011;47474;48.824;9.384;2022-08-19T08:38:38;20.23;;;15.98;;
13785;SDS011;47474;48.824;9.384;2022-08-19T08:41:06;17.08;;;15.27;;
13785;SDS011;47474;48.824;9.384;2022-08-19T08:43:39;18.67;;;16.35;;
13785;SDS011;47474;48.824;9.384;2022-08-19T08:46:10;22.67;;;16.30;;
13785;SDS011;47474;48.824;9.384;2022-08-19T08:48:42;20.67;;;16.40;;
13785;SDS011;47474;48.824;9.384;2022-08-19T08:51:13;18.48;;;16.30;;
13785;SDS011;47474;48.824;9.384;2022-08-19T08:53:41;17.55;;;15.75;;
13785;SDS011;47474;48.824;9.384;2022-08-19T08:56:08;19.80;;;17.30;;
13785;SDS011;47474;48.824;9.384;2022-08-19T08:58:41;19.98;;;17.40;;
13785;SDS011;47474;48.824;9.384;2022-08-19T09:01:11;19.85;;;16.92;;
13785;SDS011;47474;48.824;9.384;2022-08-19T09:03:39;20.10;;;17.38;;
13785;SDS011;47474;48.824;9.384;2022-08-19T09:06:07;20.67;;;16.67;;
13785;SDS011;47474;48.824;9.384;2022-08-19T09:08:40;23.80;;;17.83;;
13785;SDS011;47474;48.824;9.384;2022-08-19T09:11:12;18.55;;;15.48;;
13785;SDS011;47474;48.824;9.384;2022-08-19T09:13:48;19.58;;;16.38;;
13785;SDS011;47474;48.824;9.384;2022-08-19T09:16:21;19.90;;;17.83;;
13785;SDS011;47474;48.824;9.384;2022-08-19T09:18:49;19.77;;;17.38;;
13785;SDS011;47474;48.824;9.384;2022-08-19T09:21:18;21.13;;;17.40;;
13785;SDS011;47474;48.824;9.384;2022-08-19T09:23:47;19.50;;;16.48;;
13785;SDS011;47474;48.824;9.384;2022-08-19T09:26:15;18.65;;;16.65;;
13785;SDS011;47474;48.824;9.384;2022-08-19T09:28:45;18.85;;;15.48;;
13785;SDS011;47474;48.824;9.384;2022-08-19T09:31:25;21.42;;;18.13;;
13785;SDS011;47474;48.824;9.384;2022-08-19T09:33:53;19.60;;;15.93;;
13785;SDS011;47474;48.824;9.384;2022-08-19T09:36:22;19.92;;;15.75;;
13785;SDS011;47474;48.824;9.384;2022-08-19T09:38:49;18.70;;;16.70;;
13785;SDS011;47474;48.824;9.384;2022-08-19T09:41:17;18.98;;;16.27;;
13785;SDS011;47474;48.824;9.384;2022-08-19T09:43:47;19.90;;;16.35;;
13785;SDS011;47474;48.824;9.384;2022-08-19T09:46:17;19.48;;;16.65;;
13785;SDS011;47474;48.824;9.384;2022-08-19T09:48:46;20.25;;;17.88;;
13785;SDS011;47474;48.824;9.384;2022-08-19T09:51:14;20.13;;;16.73;;
13785;SDS011;47474;48.824;9.384;2022-08-19T09:53:43;22.27;;;17.17;;
13785;SDS011;47474;48.824;9.384;2022-08-19T09:56:11;18.88;;;16.90;;
13785;SDS011;47474;48.824;9.384;2022-08-19T09:58:38;20.33;;;16.83;;
13785;SDS011;47474;48.824;9.384;2022-08-19T10:01:07;23.70;;;19.08;;
13785;SDS011;47474;48.824;9.384;2022-08-19T10:03:35;19.30;;;17.17;;
13785;SDS011;47474;48.824;9.384;2022-08-19T10:06:03;21.08;;;17.10;;
13785;SDS011;47474;48.824;9.384;2022-08-19T10:08:31;19.60;;;16.23;;
13785;SDS011;47474;48.824;9.384;2022-08-19T10:10:59;19.40;;;17.33;;
13785;SDS011;47474;48.824;9.384;2022-08-19T10:13:28;18.10;;;15.82;;
13785;SDS011;47474;48.824;9.384;2022-08-19T10:15:56;18.92;;;16.42;;
13785;SDS011;47474;48.824;9.384;2022-08-19T10:18:24;23.98;;;17.92;;
13785;SDS011;47474;48.824;9.384;2022-08-19T10:20:51;19.20;;;16.55;;
13785;SDS011;47474;48.824;9.384;2022-08-19T10:23:20;20.17;;;17.20;;
13785;SDS011;47474;48.824;9.384;2022-08-19T10:25:47;21.35;;;17.42;;
13785;SDS011;47474;48.824;9.384;2022-08-19T10:28:13;20.90;;;18.08;;
13785;SDS011;47474;48.824;9.384;2022-08-19T10:30:40;21.63;;;18.42;;
13785;SDS011;47474;48.824;9.384;2022-08-19T10:33:07;22.38;;;18.65;;
13785;SDS011;47474;48.824;9.384;2022-08-19T10:35:35;26.73;;;19.42;;
13785;SDS011;47474;48.824;9.384;2022-08-19T10:38:06;21.50;;;18.65;;
13785;SDS011;47474;48.824;9.384;2022-08-19T10:40:32;22.17;;;18.90;;
13785;SDS011;47474;48.824;9.384;2022-08-19T10:42:59;23.20;;;19.13;;
13785;SDS011;47474;48.824;9.384;2022-08-19T10:45:26;21.77;;;19.48;;
13785;SDS011;47474;48.824;9.384;2022-08-19T10:47:53;20.17;;;18.02;;
13785;SDS011;47474;48.824;9.384;2022-08-19T10:50:20;28.63;;;22.08;;
13785;SDS011;47474;48.824;9.384;2022-08-19T10:53:09;22.55;;;19.17;;
13785;SDS011;47474;48.824;9.384;2022-08-19T10:55:36;18.90;;;16.92;;
13785;SDS011;47474;48.824;9.384;2022-08-19T10:58:21;21.08;;;18.30;;
13785;SDS011;47474;48.824;9.384;2022-08-19T11:00:51;18.48;;;16.15;;
13785;SDS011;47474;48.824;9.384;2022-08-19T11:03:18;21.02;;;16.50;;
13785;SDS011;47474;48.824;9.384;2022-08-19T11:05:56;24.05;;;19.05;;
13785;SDS011;47474;48.824;9.384;2022-08-19T11:08:28;23.58;;;19.45;;
13785;SDS011;47474;48.824;9.384;2022-08-19T11:10:58;23.15;;;20.10;;
13785;SDS011;47474;48.824;9.384;2022-08-19T11:13:26;28.00;;;22.85;;
13785;SDS011;47474;48.824;9.384;2022-08-19T11:15:57;27.60;;;23.13;;
13785;SDS011;47474;48.824;9.384;2022-08-19T11:18:24;25.08;;;21.25;;
13785;SDS011;47474;48.824;9.384;2022-08-19T11:20:51;29.63;;;22.52;;
13785;SDS011;47474;48.824;9.384;2022-08-19T11:23:18;29.30;;;23.83;;
13785;SDS011;47474;48.824;9.384;2022-08-19T11:25:47;25.95;;;22.17;;
13785;SDS011;47474;48.824;9.384;2022-08-19T11:28:18;24.17;;;20.85;;
13785;SDS011;47474;48.824;9.384;2022-08-19T11:30:45;28.75;;;22.48;;
13785;SDS011;47474;48.824;9.384;2022-08-19T11:33:12;26.70;;;22.85;;
13785;SDS011;47474;48.824;9.384;2022-08-19T11:35:39;27.35;;;22.02;;
13785;SDS011;47474;48.824;9.384;2022-08-19T11:38:06;27.50;;;21.90;;
13785;SDS011;47474;48.824;9.384;2022-08-19T11:40:36;20.85;;;18.38;;
13785;SDS011;47474;48.824;9.384;2022-08-19T11:43:05;25.23;;;21.48;;
13785;SDS011;47474;48.824;9.384;2022-08-19T11:45:32;22.90;;;19.27;;
13785;SDS011;47474;48.824;9.384;2022-08-19T11:47:59;19.50;;;17.45;;
13785;SDS011;47474;48.824;9.384;2022-08-19T11:50:26;20.42;;;17.80;;
13785;SDS011;47474;48.824;9.384;2022-08-19T11:52:54;21.30;;;19.00;;
13785;SDS011;47474;48.824;9.384;2022-08-19T11:55:24;25.25;;;21.02;;
13785;SDS011;47474;48.824;9.384;2022-08-19T11:57:51;25.10;;;20.77;;
13785;SDS011;47474;48.824;9.384;2022-08-19T12:00:19;25.40;;;21.75;;
13785;SDS011;47474;48.824;9.384;2022-08-19T12:02:48;22.15;;;19.60;;
13785;SDS011;47474;48.824;9.384;2022-08-19T12:05:15;20.77;;;18.48;;
13785;SDS011;47474;48.824;9.384;2022-08-19T12:07:42;28.70;;;20.48;;
13785;SDS011;47474;48.824;9.384;2022-08-19T12:10:12;24.35;;;18.83;;
13785;SDS011;47474;48.824;9.384;2022-08-19T12:12:49;21.92;;;18.48;;
13785;SDS011;47474;48.824;9.384;2022-08-19T12:15:15;23.90;;;20.48;;
13785;SDS011;47474;48.824;9.384;2022-08-19T12:17:44;29.60;;;23.48;;
13785;SDS011;47474;48.824;9.384;2022-08-19T12:20:13;24.92;;;22.15;;
13785;SDS011;47474;48.824;9.384;2022-08-19T12:22:42;22.95;;;18.88;;
13785;SDS011;47474;48.824;9.384;2022-08-19T12:25:09;20.35;;;18.02;;
13785;SDS011;47474;48.824;9.384;2022-08-19T12:27:39;23.30;;;19.67;;
13785;SDS011;47474;48.824;9.384;2022-08-19T12:30:09;22.88;;;17.90;;
13785;SDS011;47474;48.824;9.384;2022-08-19T12:32:40;19.73;;;17.65;;
13785;SDS011;47474;48.824;9.384;2022-08-19T12:35:09;20.38;;;18.23;;
13785;SDS011;47474;48.824;9.384;2022-08-19T12:37:37;22.65;;;17.75;;
13785;SDS011;47474;48.824;9.384;2022-08-19T12:40:07;23.30;;;20.33;;
13785;SDS011;47474;48.824;9.384;2022-08-19T12:42:37;21.25;;;18.35;;
13785;SDS011;47474;48.824;9.384;2022-08-19T12:45:07;22.08;;;18.98;;
13785;SDS011;47474;48.824;9.384;2022-08-19T12:47:35;19.23;;;16.67;;
13785;SDS011;47474;48.824;9.384;2022-08-19T12:50:04;20.73;;;18.52;;
13785;SDS011;47474;48.824;9.384;2022-08-19T12:52:35;20.48;;;18.30;;
13785;SDS011;47474;48.824;9.384;2022-08-19T12:55:04;24.25;;;20.02;;
13785;SDS011;47474;48.824;9.384;2022-08-19T12:57:32;21.48;;;18.42;;
13785;SDS011;47474;48.824;9.384;2022-08-19T13:00:04;23.73;;;18.92;;
13785;SDS011;47474;48.824;9.384;2022-08-19T13:02:34;21.67;;;18.23;;
13785;SDS011;47474;48.824;9.384;2022-08-19T13:05:01;22.00;;;18.83;;
13785;SDS011;47474;48.824;9.384;2022-08-19T13:07:31;22.00;;;19.23;;
13785;SDS011;47474;48.824;9.384;2022-08-19T13:09:59;22.13;;;19.10;;
13785;SDS011;47474;48.824;9.384;2022-08-19T13:12:26;21.42;;;19.13;;
13785;SDS011;47474;48.824;9.384;2022-08-19T13:14:53;30.50;;;22.48;;
13785;SDS011;47474;48.824;9.384;2022-08-19T13:17:20;29.13;;;23.00;;
13785;SDS011;47474;48.824;9.384;2022-08-19T13:19:48;26.52;;;21.63;;
13785;SDS011;47474;48.824;9.384;2022-08-19T13:22:15;23.88;;;20.23;;
13785;SDS011;47474;48.824;9.384;2022-08-19T13:24:42;22.48;;;19.00;;
13785;SDS011;47474;48.824;9.384;2022-08-19T13:27:10;26.63;;;21.30;;
13785;SDS011;47474;48.824;9.384;2022-08-19T13:29:39;23.40;;;20.90;;
13785;SDS011;47474;48.824;9.384;2022-08-19T13:32:23;25.60;;;20.55;;
13785;SDS011;47474;48.824;9.384;2022-08-19T13:35:07;22.90;;;20.13;;
13785;SDS011;47474;48.824;9.384;2022-08-19T13:37:34;20.60;;;18.45;;
13785;SDS011;47474;48.824;9.384;2022-08-19T13:40:07;20.67;;;17.08;;
13785;SDS011;47474;48.824;9.384;2022-08-19T13:42:39;21.55;;;18.92;;
13785;SDS011;47474;48.824;9.384;2022-08-19T13:45:06;22.45;;;18.23;;
13785;SDS011;47474;48.824;9.384;2022-08-19T13:47:37;21.67;;;17.38;;
13785;SDS011;47474;48.824;9.384;2022-08-19T13:50:09;23.40;;;17.95;;
13785;SDS011;47474;48.824;9.384;2022-08-19T13:52:37;19.67;;;17.45;;
13785;SDS011;47474;48.824;9.384;2022-08-19T13:55:04;19.17;;;17.10;;
13785;SDS011;47474;48.824;9.384;2022-08-19T13:57:32;20.38;;;17.42;;
13785;SDS011;47474;48.824;9.384;2022-08-19T14:00:01;20.20;;;17.15;;
13785;SDS011;47474;48.824;9.384;2022-08-19T14:02:29;20.77;;;18.25;;
13785;SDS011;47474;48.824;9.384;2022-08-19T14:04:56;22.70;;;18.73;;
13785;SDS011;47474;48.824;9.384;2022-08-19T14:07:23;20.88;;;17.55;;
13785;SDS011;47474;48.824;9.384;2022-08-19T14:09:50;20.90;;;18.70;;
13785;SDS011;47474;48.824;9.384;2022-08-19T14:12:18;26.23;;;21.17;;
13785;SDS011;47474;48.824;9.384;2022-08-19T14:14:48;21.70;;;19.35;;
13785;SDS011;47474;48.824;9.384;2022-08-19T14:17:17;23.00;;;18.58;;
13785;SDS011;47474;48.824;9.384;2022-08-19T14:19:44;20.15;;;17.67;;
13785;SDS011;47474;48.824;9.384;2022-08-19T14:22:10;23.70;;;18.95;;
13785;SDS011;47474;48.824;9.384;2022-08-19T14:24:37;21.75;;;18.25;;
13785;SDS011;47474;48.824;9.384;2022-08-19T14:27:05;20.50;;;18.02;;
13785;SDS011;47474;48.824;9.384;2022-08-19T14:29:35;18.25;;;16.35;;
13785;SDS011;47474;48.824;9.384;2022-08-19T14:32:01;18.17;;;16.23;;
13785;SDS011;47474;48.824;9.384;2022-08-19T14:34:32;20.92;;;18.40;;